LOWI Airport Information

Runway Information
Runway 08 Length 6562 ft width 148 ft
Elevation 1906 ft Threshold 339 ft Heading 81
Runway 26 Length 6562 ft Width 148 ft
Elevation 1893 ft Threshold 198 ft Heading 261
Airport Frequencies
Type APP Name APP Frequency 119.275 MHZ
Type ATIS Name ATIS Frequency 126.025 MHZ
Type GND Crew Name Frequency 121.8 MHZ
Type GND Crew Name Frequency 121.9 MHZ
Type TWR Name TWR Frequency 120.1 MHZ
Airport Navaids
Type NDB Name Innsbruck Frequency 420 KHZ
Type NDB Name Kuhtai Frequency 413 KHZ
Airport Weather Information & NOTAM
ADDS - METARS form results

(0459 UTC 28 May 2022)
Data provider http://aviationweather.gov/metar/data/
 
METAR text: LOWI 280450Z 25003KT 210V280 9999 -RA FEW010 BKN050 12/10 Q1019 NOSIG
Conditions at: LOWI (INNSBRUCK AIRPOR, AT) observed 0450 UTC 28 May 2022
Temperature: 12.0°C (54°F)
Dewpoint: 10.0°C (50°F) [RH = 88%]
Pressure (altimeter): 30.09 inches Hg (1019.0 mb)
Winds: from the WSW (250 degrees) at 3 MPH (3 knots; 1.5 m/s)
Visibility: 6 or more miles (10+ km)
Ceiling: 5000 feet AGL
Clouds: few clouds at 1000 feet AGL
broken clouds at 5000 feet AGL
Weather: -RA  (light rain)

METAR text: LOWI 280420Z 22004KT 190V250 9999 -RA FEW010 BKN050 12/09 Q1019 NOSIG
Conditions at: LOWI (INNSBRUCK AIRPOR, AT) observed 0420 UTC 28 May 2022
Temperature: 12.0°C (54°F)
Dewpoint: 9.0°C (48°F) [RH = 82%]
Pressure (altimeter): 30.09 inches Hg (1019.0 mb)
Winds: from the SW (220 degrees) at 5 MPH (4 knots; 2.1 m/s)
Visibility: 6 or more miles (10+ km)
Ceiling: 5000 feet AGL
Clouds: few clouds at 1000 feet AGL
broken clouds at 5000 feet AGL
Weather: -RA  (light rain)

Forecast for: AMD
Text: TAF AMD LOWI 280025Z 2800/2824 27008KT 9999 BKN040 TX16/2813Z TN11/2824Z
Forecast period: 0000 to 1000 UTC 28 May 2022
Forecast type: FROM: standard forecast or significant change
Winds: from the W (270 degrees) at 9 MPH (8 knots; 4.1 m/s)
Visibility: 6 or more miles (10+ km)
Ceiling: 4000 feet AGL
Clouds: broken clouds at 4000 feet AGL
Weather: no significant weather forecast for this period
Text: TEMPO 2800/2812 09010KT -SHRA
Forecast period: 0000 to 1200 UTC 28 May 2022
Forecast type: TEMPORARY: The following changes expected for less than half the time period
Winds: from the E (90 degrees) at 12 MPH (10 knots; 5.1 m/s)
Visibility: missing
Ceiling: unknown
Clouds: missing
Weather: -SHRA  (light rain showers)
Text: BECMG 2810/2812 09008KT
Forecast period: 1000 UTC 28 May 2022 to 0000 UTC 29 May 2022
Forecast type: BECOMING: Conditions expected to become as follows by 1200 UTC 28 May 2022
Winds: from the E (90 degrees) at 9 MPH (8 knots; 4.1 m/s)
Visibility: 6 or more miles (10+ km)
Ceiling: 4000 feet AGL
Clouds: broken clouds at 4000 feet AGL
Weather: no significant weather forecast for this period